首页
METAR-TAF:

METAR-TAF

机场 :

休斯敦, 得克萨斯州, 美国

喬治·布什洲際機場

纬度: 29-59-33N, 经度: 095-21-50W, 海拔: 29米

当前天气观测

该预报发布于1小时和4分钟前的05:53 UTC
风速5节,风向东南
温度 11°C
湿度 100%
气压 1021 hPa
能見度: 0.4公里
阴天层高于300英尺
小雨, 轻雾

METAR: KIAH 200553Z 14005KT 1/4SM -RA BR OVC003 11/11 A3014 RMK AO2 SFC VIS 1 RAB0457E09B51 SLP207 P0000 60000 T01110111 10111 20106 401390011 58002

时间: 00:57 (06:57 UTC)

预报

该预报发布于1小时和28分钟前的05:29 UTC
预报有效从20日的 06点(UTC)到 21日的 12点(UTC)
风速10节,风向东转东南
能見度: 3.2公里
阴天层高于300英尺
轻雾, 附近有阵雨
从 20日的 0900点(UTC)
风速5节,风向南转南东
能見度: 1.6公里
阴天层高于300英尺
轻雾, 附近有阵雨
从 20日的 1500点(UTC)
风速7节,风向
能見度: 6.4公里
多云层高于700英尺
阴天层高于1000英尺
轻雾, 附近有阵雨
从 20日的 1800点(UTC)
风速9节,风向,有时为18节阵风
能見度: 10公里
阴天层高于1500英尺
附近有阵雨
从 21日的 0000点(UTC)
风速10节,风向南转南东
能見度: 9.7公里
阴天层高于700英尺
轻雾, 附近有阵雨
从 21日的 0300点(UTC)
风速8节,风向南转南东
能見度: 3.2公里
阴天层高于500英尺
轻雾, 附近有阵雨

TAF: KIAH 200529Z 2006/2112 12010KT 2SM BR VCSH OVC003 FM200900 15005KT 1SM BR VCSH OVC003 FM201500 18007KT 4SM BR VCSH BKN007 OVC010 FM201800 17009G18KT P6SM VCSH OVC015 FM210000 16010KT 6SM BR VCSH OVC007 FM210300 16008KT 2SM BR VCSH OVC005

超过4000个机场的气象观测和天气预报(METAR&TAF报告)。

可查询的气象台以黄色和红色小点在地图上表示。

将鼠标移到小点上方,可查看气象台名称。

然后点击查看天气观测和预报。

如需切换地图:点击带黑十字的绿色按钮放大地图;点击带横线的绿色按钮缩小地图;或者点击绿色箭头查看邻近地区的地图。


METAR-TAF: